Wilbur Observed Data For Previous 48 Hours

Caption
Day and Hour Reservoir Elevation (behind dam)* Tailwater Elevation (below dam)* Average Hourly Discharge*
12/10/2018 2 AM EST 1,648.94 1,585.85 1,764
12/10/2018 3 AM EST 1,648.95 1,585.84 1,764
12/10/2018 4 AM EST 1,648.93 1,585.83 1,761
12/10/2018 5 AM EST 1,648.90 1,585.84 1,764
12/10/2018 6 AM EST 1,648.90 1,585.83 1,767
12/10/2018 7 AM EST 1,648.90 1,585.84 1,768
12/10/2018 8 AM EST 1,648.90 1,585.84 1,766
12/10/2018 9 AM EST 1,648.89 1,585.82 1,767
12/10/2018 10 AM EST 1,648.89 1,585.75 1,765
12/10/2018 11 AM EST 1,648.87 1,585.76 1,760
12/10/2018 12 PM EST 1,648.86 1,585.77 1,764
12/10/2018 1 PM EST 1,648.84 1,585.78 1,765
12/10/2018 2 PM EST 1,649.16 1,585.80 1,768
12/10/2018 3 PM EST 1,649.08 1,585.78 1,771
12/10/2018 4 PM EST 1,649.05 1,585.80 1,771
12/10/2018 5 PM EST 1,649.05 1,585.82 1,772
12/10/2018 6 PM EST 1,649.02 1,585.82 1,775
12/10/2018 7 PM EST 1,648.96 1,585.84 1,771
12/10/2018 8 PM EST 1,648.95 1,585.84 1,771
12/10/2018 9 PM EST 1,648.90 1,585.84 1,773
12/10/2018 10 PM EST 1,648.89 1,585.83 1,772
12/10/2018 11 PM EST 1,648.86 1,585.84 1,771
12/11/2018 12 AM EST 1,648.81 1,585.85 1,766
12/11/2018 1 AM EST 1,648.78 1,585.85 1,769
12/11/2018 2 AM EST 1,649.20 1,583.47 311
12/11/2018 3 AM EST 1,648.90 1,583.52 250
12/11/2018 4 AM EST 1,648.56 1,583.51 246
12/11/2018 5 AM EST 1,648.20 1,583.53 244
12/11/2018 6 AM EST 1,647.86 1,583.55 240
12/11/2018 7 AM EST 1,648.70 1,585.94 1,371
12/11/2018 8 AM EST 1,649.16 1,585.96 1,762
12/11/2018 9 AM EST 1,649.16 1,585.93 1,766
12/11/2018 10 AM EST 1,649.15 1,585.84 1,766
12/11/2018 11 AM EST 1,649.10 1,585.76 1,764
12/11/2018 12 PM EST 1,649.08 1,585.73 1,768
12/11/2018 1 PM EST 1,649.04 1,585.75 1,765
12/11/2018 2 PM EST 1,649.01 1,585.82 1,770
12/11/2018 3 PM EST 1,648.97 1,585.83 1,772
12/11/2018 4 PM EST 1,648.92 1,585.83 1,773
12/11/2018 5 PM EST 1,648.89 1,585.86 1,775
12/11/2018 6 PM EST 1,648.87 1,585.89 1,774
12/11/2018 7 PM EST 1,648.83 1,585.90 1,770
12/11/2018 8 PM EST 1,648.80 1,585.94 1,769
12/11/2018 9 PM EST 1,648.74 1,585.95 1,769
12/11/2018 10 PM EST 1,648.70 1,585.96 1,768
12/11/2018 11 PM EST 1,648.66 1,585.97 1,768
12/12/2018 12 AM EST 1,648.62 1,585.94 1,769
12/12/2018 1 AM EST 1,648.61 1,585.97 1,768
12/12/2018 2 AM EST 1,648.58 1,585.98 1,766
12/12/2018 3 AM EST 1,648.56 1,585.99 1,766

Elevations are in feet above sea level. Discharges are in cubic feet per second and are reported at the end of the hour.